Time;durP1;ratioP1;P1;durP2;ratioP2;P2;SDS_P1;SDS_P2;PMS_P1;PMS_P2;Temp;Humidity;BMP_temperature;BMP_pressure;BME280_temperature;BME280_humidity;BME280_pressure;Samples;Min_cycle;Max_cycle;Signal;HPM_P1;HPM_P2
2021/10/18 00:01:40;;;;;;;3.57;3.27;;;;;;;;;;5019922;28;20313;-62
2021/10/18 00:04:12;;;;;;;4.60;2.90;;;;;;;;;;5027968;28;21836;-64
2021/10/18 00:06:38;;;;;;;4.73;3.13;;;;;;;;;;5030458;28;20204;-63
2021/10/18 00:09:05;;;;;;;3.97;2.83;;;;;;;;;;5030939;28;20230;-62
2021/10/18 00:11:36;;;;;;;3.53;3.20;;;;;;;;;;5051355;28;20193;-64
2021/10/18 00:14:16;;;;;;;4.00;3.60;;;;;;;;;;5038507;28;20188;-63
2021/10/18 00:16:48;;;;;;;4.00;3.40;;;;;;;;;;5037409;28;20189;-62
2021/10/18 00:19:22;;;;;;;3.90;3.37;;;;;;;;;;5030766;28;20186;-62
2021/10/18 00:21:49;;;;;;;3.03;2.73;;;;;;;;;;5030473;28;20208;-64
2021/10/18 00:24:22;;;;;;;3.27;2.97;;;;;;;;;;5029993;28;20544;-62
2021/10/18 00:26:48;;;;;;;5.00;3.07;;;;;;;;;;5029317;28;20206;-63
2021/10/18 00:29:19;;;;;;;4.07;3.37;;;;;;;;;;5029715;28;20423;-62
2021/10/18 00:31:46;;;;;;;3.27;3.00;;;;;;;;;;5033810;28;20195;-62
2021/10/18 00:37:20;;;;;;;4.33;2.90;;;;;;;;;;5048300;28;20636;-62
2021/10/18 00:40:10;;;;;;;3.33;3.03;;;;;;;;;;5024063;28;20189;-63
2021/10/18 00:43:00;;;;;;;3.00;2.70;;;;;;;;;;5045184;28;20183;-63
2021/10/18 00:45:52;;;;;;;3.17;2.87;;;;;;;;;;5028723;28;20326;-63
2021/10/18 00:48:25;;;;;;;4.43;3.40;;;;;;;;;;5024614;28;20246;-62
2021/10/18 00:51:02;;;;;;;2.97;2.73;;;;;;;;;;5028115;28;20331;-62
2021/10/18 00:53:32;;;;;;;3.53;3.20;;;;;;;;;;5028600;28;20201;-62
2021/10/18 00:55:58;;;;;;;3.50;3.20;;;;;;;;;;5028482;28;20907;-62
2021/10/18 00:58:26;;;;;;;3.10;2.80;;;;;;;;;;5048483;28;20165;-62
2021/10/18 01:00:55;;;;;;;3.47;3.17;;;;;;;;;;5043955;28;20176;-62
2021/10/18 01:03:22;;;;;;;3.67;3.37;;;;;;;;;;5009683;28;20498;-62
2021/10/18 01:05:48;;;;;;;3.37;3.07;;;;;;;;;;5010242;28;20190;-62
2021/10/18 01:08:14;;;;;;;3.13;2.53;;;;;;;;;;5028318;28;20253;-62
2021/10/18 01:10:41;;;;;;;3.17;2.87;;;;;;;;;;5009078;28;20185;-61
2021/10/18 01:13:07;;;;;;;3.17;2.87;;;;;;;;;;5022934;28;20218;-62
2021/10/18 01:15:33;;;;;;;3.33;2.70;;;;;;;;;;5027584;28;20262;-62
2021/10/18 01:18:12;;;;;;;7.47;2.87;;;;;;;;;;5009436;28;20619;-62
2021/10/18 01:20:40;;;;;;;5.17;3.07;;;;;;;;;;5009703;28;20182;-62
2021/10/18 01:23:07;;;;;;;4.17;3.00;;;;;;;;;;5025501;28;20252;-62
2021/10/18 01:26:00;;;;;;;3.40;3.07;;;;;;;;;;5026635;28;20711;-61
2021/10/18 01:28:32;;;;;;;2.57;2.30;;;;;;;;;;5028001;28;20166;-62
2021/10/18 01:31:01;;;;;;;2.93;2.70;;;;;;;;;;5006173;28;20289;-62
2021/10/18 01:33:28;;;;;;;2.80;2.60;;;;;;;;;;5009598;28;20174;-62
2021/10/18 01:36:01;;;;;;;3.90;3.10;;;;;;;;;;5009035;28;20535;-62
2021/10/18 01:38:28;;;;;;;4.60;3.30;;;;;;;;;;5027984;28;20228;-62
2021/10/18 01:43:46;;;;;;;3.87;2.93;;;;;;;;;;5024917;28;20201;-62
2021/10/18 01:46:13;;;;;;;3.13;2.83;;;;;;;;;;5006454;28;20182;-62
2021/10/18 01:48:47;;;;;;;3.00;2.77;;;;;;;;;;5033061;28;20289;-62
2021/10/18 01:51:14;;;;;;;3.63;3.10;;;;;;;;;;5007670;28;20205;-62
2021/10/18 01:54:06;;;;;;;3.23;2.87;;;;;;;;;;5009598;28;20251;-62
2021/10/18 01:56:36;;;;;;;4.03;2.83;;;;;;;;;;5006940;28;20798;-62
2021/10/18 01:59:21;;;;;;;3.53;3.23;;;;;;;;;;5011366;28;20174;-62
2021/10/18 02:01:48;;;;;;;3.30;3.00;;;;;;;;;;5012600;28;20229;-62
2021/10/18 02:04:14;;;;;;;3.23;2.93;;;;;;;;;;5012898;28;20304;-63
2021/10/18 02:06:45;;;;;;;3.30;3.00;;;;;;;;;;5009660;28;20182;-63
2021/10/18 02:09:41;;;;;;;2.93;2.73;;;;;;;;;;5009662;28;20183;-63
2021/10/18 02:12:44;;;;;;;3.30;2.80;;;;;;;;;;5025751;28;20668;-63
2021/10/18 02:18:12;;;;;;;3.60;2.70;;;;;;;;;;5012424;28;20255;-63
2021/10/18 02:20:38;;;;;;;3.00;2.80;;;;;;;;;;5011248;28;20530;-63
2021/10/18 02:23:25;;;;;;;3.50;3.13;;;;;;;;;;5030019;28;20280;-65
2021/10/18 02:26:04;;;;;;;3.77;3.13;;;;;;;;;;5024683;28;20226;-63
2021/10/18 02:28:30;;;;;;;3.10;2.80;;;;;;;;;;5030783;28;20201;-63
2021/10/18 02:30:57;;;;;;;4.87;2.87;;;;;;;;;;5031093;28;20212;-63
2021/10/18 02:33:31;;;;;;;3.23;2.77;;;;;;;;;;5031636;28;20170;-63
2021/10/18 02:35:57;;;;;;;3.10;2.80;;;;;;;;;;5013024;28;20465;-63
2021/10/18 02:38:23;;;;;;;4.30;3.00;;;;;;;;;;5013623;28;20624;-63
2021/10/18 02:41:21;;;;;;;4.13;3.17;;;;;;;;;;5028395;28;20186;-65
2021/10/18 02:43:47;;;;;;;3.30;2.80;;;;;;;;;;5009490;28;20186;-64
2021/10/18 02:46:13;;;;;;;3.00;2.70;;;;;;;;;;5030964;28;20261;-63
2021/10/18 02:48:46;;;;;;;3.70;3.23;;;;;;;;;;5030846;28;20173;-63
2021/10/18 02:51:15;;;;;;;3.40;3.10;;;;;;;;;;5011762;28;20589;-63
2021/10/18 02:53:41;;;;;;;4.00;2.57;;;;;;;;;;5030594;28;20241;-61
2021/10/18 02:56:10;;;;;;;3.30;3.00;;;;;;;;;;5029534;28;20660;-64
2021/10/18 02:58:39;;;;;;;3.07;2.80;;;;;;;;;;5012559;28;20927;-64
2021/10/18 03:01:05;;;;;;;3.43;3.13;;;;;;;;;;5031835;28;20313;-64
2021/10/18 03:03:45;;;;;;;4.27;3.23;;;;;;;;;;5039669;28;20246;-63
2021/10/18 03:06:12;;;;;;;4.77;3.80;;;;;;;;;;5023227;28;20205;-64
2021/10/18 03:08:38;;;;;;;2.83;2.60;;;;;;;;;;5030277;28;20189;-61
2021/10/18 03:11:04;;;;;;;4.03;3.30;;;;;;;;;;5031287;28;20202;-64
2021/10/18 03:13:30;;;;;;;3.07;2.83;;;;;;;;;;5011898;28;20198;-62
2021/10/18 03:16:09;;;;;;;3.57;3.27;;;;;;;;;;5028904;28;20256;-64
2021/10/18 03:18:38;;;;;;;3.37;3.00;;;;;;;;;;5010390;28;20648;-62
2021/10/18 03:21:04;;;;;;;3.30;3.00;;;;;;;;;;5028840;28;20250;-62
2021/10/18 03:23:31;;;;;;;3.07;2.87;;;;;;;;;;5011453;28;20204;-62
2021/10/18 03:25:57;;;;;;;3.30;3.10;;;;;;;;;;5028416;28;20256;-62
2021/10/18 03:28:23;;;;;;;3.50;3.20;;;;;;;;;;5038593;28;20279;-62
2021/10/18 03:30:49;;;;;;;3.07;2.80;;;;;;;;;;5022657;28;20312;-62
2021/10/18 03:33:16;;;;;;;4.33;4.03;;;;;;;;;;5037236;28;20177;-62
2021/10/18 03:35:45;;;;;;;5.33;3.40;;;;;;;;;;5033290;28;20170;-62
2021/10/18 03:38:12;;;;;;;3.87;3.30;;;;;;;;;;5008211;28;20177;-63
2021/10/18 03:40:41;;;;;;;3.67;2.97;;;;;;;;;;5009814;28;20189;-63
2021/10/18 03:43:08;;;;;;;3.57;3.20;;;;;;;;;;5034488;28;20267;-62
2021/10/18 03:45:37;;;;;;;4.27;3.53;;;;;;;;;;5016329;28;20258;-62
2021/10/18 03:48:12;;;;;;;3.50;3.20;;;;;;;;;;5027866;28;20166;-62
2021/10/18 03:50:46;;;;;;;5.10;3.20;;;;;;;;;;5004044;28;20185;-62
2021/10/18 03:53:21;;;;;;;4.60;3.50;;;;;;;;;;5007216;28;20212;-62
2021/10/18 03:55:50;;;;;;;3.00;2.80;;;;;;;;;;5009595;28;20547;-63
2021/10/18 03:58:16;;;;;;;3.17;2.87;;;;;;;;;;5015716;28;20203;-62
2021/10/18 04:00:43;;;;;;;4.57;4.17;;;;;;;;;;5027394;28;20181;-62
2021/10/18 04:03:09;;;;;;;6.13;4.23;;;;;;;;;;5035356;28;20169;-62
2021/10/18 04:05:35;;;;;;;4.10;3.73;;;;;;;;;;5011233;28;20184;-62
2021/10/18 04:08:08;;;;;;;3.23;2.90;;;;;;;;;;5009378;28;20193;-62
2021/10/18 04:10:40;;;;;;;3.90;3.10;;;;;;;;;;5007892;28;20572;-62
2021/10/18 04:13:25;;;;;;;3.33;3.03;;;;;;;;;;5005365;28;20553;-62
2021/10/18 04:16:00;;;;;;;3.90;3.20;;;;;;;;;;5011157;28;20248;-63
2021/10/18 04:18:26;;;;;;;3.33;3.03;;;;;;;;;;5010413;28;20189;-62
2021/10/18 04:21:05;;;;;;;;;;;;;;;;;;;;;
2021/10/18 04:23:40;;;;;;;4.63;3.50;;;;;;;;;;5028818;28;20539;-62
2021/10/18 04:26:06;;;;;;;3.97;3.13;;;;;;;;;;5001491;28;20201;-62
2021/10/18 04:28:33;;;;;;;4.30;3.27;;;;;;;;;;5008366;28;20282;-63
2021/10/18 04:31:01;;;;;;;4.03;3.63;;;;;;;;;;5026594;28;20273;-62
2021/10/18 04:33:28;;;;;;;3.63;3.30;;;;;;;;;;5014071;28;20209;-62
2021/10/18 04:35:56;;;;;;;3.93;3.53;;;;;;;;;;5016221;28;20181;-63
2021/10/18 04:38:38;;;;;;;;;;;;;;;;;;;;;
2021/10/18 04:41:07;;;;;;;3.47;3.10;;;;;;;;;;5024887;28;20560;-63
2021/10/18 04:43:40;;;;;;;3.60;3.30;;;;;;;;;;5007345;28;20621;-62
2021/10/18 04:46:15;;;;;;;4.23;3.83;;;;;;;;;;5005960;28;20276;-62
2021/10/18 04:49:00;;;;;;;3.67;3.23;;;;;;;;;;5035398;28;20228;-62
2021/10/18 04:51:31;;;;;;;5.23;3.33;;;;;;;;;;5009036;28;20304;-62
2021/10/18 04:54:00;;;;;;;4.10;3.70;;;;;;;;;;5002176;28;20185;-62
2021/10/18 04:56:33;;;;;;;4.23;3.20;;;;;;;;;;5002374;28;20209;-62
2021/10/18 04:59:08;;;;;;;4.07;3.37;;;;;;;;;;5006862;28;20194;-63
2021/10/18 05:02:00;;;;;;;3.83;3.50;;;;;;;;;;5011774;28;20212;-62
2021/10/18 05:04:33;;;;;;;3.63;3.33;;;;;;;;;;5017813;28;20599;-62
2021/10/18 05:07:05;;;;;;;3.93;3.63;;;;;;;;;;5018845;28;20182;-63
2021/10/18 05:09:33;;;;;;;3.90;3.50;;;;;;;;;;5021589;28;20235;-63
2021/10/18 05:12:00;;;;;;;4.57;3.00;;;;;;;;;;5028886;28;20193;-62
2021/10/18 05:14:26;;;;;;;3.27;2.97;;;;;;;;;;5017071;28;20648;-62
2021/10/18 05:17:01;;;;;;;4.07;3.27;;;;;;;;;;5012200;28;20186;-64
2021/10/18 05:19:30;;;;;;;4.67;3.50;;;;;;;;;;5017982;28;20235;-64
2021/10/18 05:21:56;;;;;;;3.47;3.10;;;;;;;;;;5024758;28;20652;-64
2021/10/18 05:24:28;;;;;;;3.73;3.13;;;;;;;;;;5019770;28;20186;-62
2021/10/18 05:27:06;;;;;;;4.00;3.53;;;;;;;;;;5023269;28;20185;-62
2021/10/18 05:29:48;;;;;;;6.27;3.97;;;;;;;;;;5012038;28;20184;-62
2021/10/18 05:32:31;;;;;;;4.30;3.53;;;;;;;;;;5017274;28;20196;-62
2021/10/18 05:34:57;;;;;;;3.47;3.17;;;;;;;;;;5024132;28;20185;-62
2021/10/18 05:37:59;;;;;;;4.97;3.50;;;;;;;;;;5022431;28;20244;-62
2021/10/18 05:40:28;;;;;;;4.43;4.03;;;;;;;;;;4988641;28;20587;-62
2021/10/18 05:42:55;;;;;;;6.13;3.00;;;;;;;;;;5023057;28;20262;-62
2021/10/18 05:45:23;;;;;;;4.20;3.80;;;;;;;;;;5011569;28;20591;-62
2021/10/18 05:47:56;;;;;;;4.00;3.60;;;;;;;;;;5028839;28;20181;-62
2021/10/18 05:50:26;;;;;;;4.07;3.23;;;;;;;;;;5011281;28;20670;-62
2021/10/18 05:52:53;;;;;;;4.60;3.17;;;;;;;;;;5012001;28;20667;-62
2021/10/18 05:55:25;;;;;;;5.17;3.33;;;;;;;;;;5011331;28;20537;-64
2021/10/18 05:58:09;;;;;;;3.60;3.30;;;;;;;;;;5016664;28;20177;-63
2021/10/18 06:00:45;;;;;;;3.77;3.23;;;;;;;;;;5008153;28;20224;-62
2021/10/18 06:03:12;;;;;;;3.80;3.40;;;;;;;;;;5008978;28;20240;-62
2021/10/18 06:05:43;;;;;;;4.90;3.50;;;;;;;;;;5024616;28;20199;-62
2021/10/18 06:08:13;;;;;;;4.40;3.80;;;;;;;;;;5011894;28;20173;-62
2021/10/18 06:10:43;;;;;;;4.17;3.77;;;;;;;;;;5013048;28;20716;-62
2021/10/18 06:13:10;;;;;;;3.73;2.90;;;;;;;;;;5005723;28;21077;-62
2021/10/18 06:15:45;;;;;;;5.53;3.67;;;;;;;;;;5011081;28;20267;-62
2021/10/18 06:18:12;;;;;;;4.03;3.53;;;;;;;;;;5013531;28;20205;-63
2021/10/18 06:20:51;;;;;;;3.57;3.23;;;;;;;;;;5029239;28;20185;-62
2021/10/18 06:23:21;;;;;;;4.57;3.63;;;;;;;;;;5008736;28;20628;-63
2021/10/18 06:25:55;;;;;;;3.53;3.23;;;;;;;;;;5024325;28;20504;-63
2021/10/18 06:28:28;;;;;;;3.53;3.23;;;;;;;;;;5007590;28;20193;-62
2021/10/18 06:31:06;;;;;;;4.93;3.80;;;;;;;;;;5012861;28;20182;-62
2021/10/18 06:33:39;;;;;;;4.30;3.50;;;;;;;;;;5010734;28;20186;-63
2021/10/18 06:36:16;;;;;;;4.13;3.67;;;;;;;;;;5005476;28;20213;-63
2021/10/18 06:38:42;;;;;;;3.93;3.23;;;;;;;;;;5011367;28;20187;-62
2021/10/18 06:41:12;;;;;;;3.57;3.27;;;;;;;;;;5026647;28;20174;-62
2021/10/18 06:44:11;;;;;;;4.57;3.70;;;;;;;;;;5009628;28;20227;-63
2021/10/18 06:46:59;;;;;;;4.30;3.90;;;;;;;;;;5010525;28;20178;-65
2021/10/18 06:49:30;;;;;;;5.63;3.90;;;;;;;;;;5025113;28;20320;-62
2021/10/18 06:52:05;;;;;;;7.00;3.90;;;;;;;;;;5009636;28;20699;-62
2021/10/18 06:54:40;;;;;;;4.07;3.63;;;;;;;;;;5010101;28;20169;-62
2021/10/18 06:57:26;;;;;;;5.27;4.03;;;;;;;;;;5009173;28;20184;-62
2021/10/18 07:00:01;;;;;;;5.67;4.40;;;;;;;;;;5001632;28;20192;-64
2021/10/18 07:02:31;;;;;;;5.97;4.17;;;;;;;;;;5008976;28;20664;-62
2021/10/18 07:04:58;;;;;;;5.17;3.93;;;;;;;;;;5010669;28;20193;-61
2021/10/18 07:07:36;;;;;;;5.83;3.97;;;;;;;;;;5012774;28;20209;-64
2021/10/18 07:10:04;;;;;;;4.87;4.37;;;;;;;;;;5009600;28;20185;-63
2021/10/18 07:12:34;;;;;;;4.73;4.23;;;;;;;;;;5025070;28;20205;-64
2021/10/18 07:15:10;;;;;;;4.97;4.20;;;;;;;;;;5010061;28;20170;-63
2021/10/18 07:17:49;;;;;;;;;;;;;;;;;;;;;
2021/10/18 07:20:16;;;;;;;5.53;4.00;;;;;;;;;;5028451;28;20609;-61
2021/10/18 07:22:48;;;;;;;4.60;3.90;;;;;;;;;;5010062;28;20532;-62
2021/10/18 07:25:20;;;;;;;4.20;3.80;;;;;;;;;;4995900;28;20182;-62
2021/10/18 07:27:54;;;;;;;4.73;4.23;;;;;;;;;;5009253;28;20177;-62
2021/10/18 07:30:24;;;;;;;5.80;4.70;;;;;;;;;;5012402;28;20194;-62
2021/10/18 07:33:01;;;;;;;5.40;4.10;;;;;;;;;;5009479;28;20209;-61
2021/10/18 07:35:33;;;;;;;5.93;4.60;;;;;;;;;;5026083;28;20196;-62
2021/10/18 07:41:30;;;;;;;;;;;;;;;;;;;;;
2021/10/18 07:43:56;;;;;;;4.67;4.13;;;;;;;;;;5021165;28;20181;-63
2021/10/18 07:46:23;;;;;;;6.27;4.43;;;;;;;;;;5007114;28;20188;-61
2021/10/18 07:48:51;;;;;;;4.30;3.73;;;;;;;;;;5017948;28;20181;-63
2021/10/18 07:51:21;;;;;;;4.57;3.93;;;;;;;;;;5012859;28;20305;-64
2021/10/18 07:53:53;;;;;;;7.27;4.50;;;;;;;;;;5010807;28;20532;-64
2021/10/18 07:56:19;;;;;;;5.53;4.33;;;;;;;;;;5012371;28;20196;-63
2021/10/18 07:58:57;;;;;;;5.73;4.73;;;;;;;;;;5013103;28;20190;-63
2021/10/18 08:01:23;;;;;;;4.53;4.13;;;;;;;;;;5006528;28;20237;-63
2021/10/18 08:03:50;;;;;;;5.10;4.50;;;;;;;;;;5030608;28;20189;-65
2021/10/18 08:06:16;;;;;;;5.67;4.17;;;;;;;;;;5007593;28;20201;-61
2021/10/18 08:09:02;;;;;;;6.53;4.63;;;;;;;;;;5036493;28;20181;-65
2021/10/18 08:11:41;;;;;;;6.93;5.13;;;;;;;;;;5026280;28;20204;-63
2021/10/18 08:14:10;;;;;;;5.30;4.13;;;;;;;;;;5016594;28;20962;-63
2021/10/18 08:16:36;;;;;;;6.20;4.97;;;;;;;;;;5028696;28;20196;-63
2021/10/18 08:19:08;;;;;;;7.17;5.07;;;;;;;;;;5028806;28;20363;-64
2021/10/18 08:21:34;;;;;;;6.13;5.10;;;;;;;;;;5011277;28;20599;-63
2021/10/18 08:24:03;;;;;;;10.53;5.73;;;;;;;;;;5016857;28;20215;-63
2021/10/18 08:26:42;;;;;;;10.20;7.27;;;;;;;;;;5013625;28;20182;-63
2021/10/18 08:29:09;;;;;;;5.80;5.00;;;;;;;;;;5008949;28;20802;-63
2021/10/18 08:31:48;;;;;;;5.70;5.10;;;;;;;;;;5043121;28;20597;-63
2021/10/18 08:34:15;;;;;;;7.23;6.00;;;;;;;;;;5010026;28;20553;-63
2021/10/18 08:36:41;;;;;;;5.83;4.97;;;;;;;;;;5013348;28;20661;-63
2021/10/18 08:42:03;;;;;;;8.87;6.03;;;;;;;;;;5025186;28;20321;-63
2021/10/18 08:44:34;;;;;;;6.10;5.47;;;;;;;;;;5014422;28;20605;-63
2021/10/18 08:47:02;;;;;;;6.30;5.57;;;;;;;;;;5013374;28;20209;-63
2021/10/18 08:49:38;;;;;;;7.40;6.23;;;;;;;;;;5033846;28;20655;-63
2021/10/18 08:52:23;;;;;;;;;;;;;;;;;;;;;
2021/10/18 08:54:52;;;;;;;7.57;5.50;;;;;;;;;;5025785;28;20181;-63
2021/10/18 08:57:19;;;;;;;8.60;5.43;;;;;;;;;;5008384;28;20254;-63
2021/10/18 08:59:45;;;;;;;7.87;5.87;;;;;;;;;;5006049;28;20190;-63
2021/10/18 09:02:12;;;;;;;9.77;5.67;;;;;;;;;;5008615;28;20225;-62
2021/10/18 09:04:39;;;;;;;7.37;5.93;;;;;;;;;;5010381;28;20199;-60
2021/10/18 09:07:17;;;;;;;9.33;5.93;;;;;;;;;;5007884;28;20196;-60
2021/10/18 09:09:54;;;;;;;6.00;5.37;;;;;;;;;;5004178;28;20182;-65
2021/10/18 09:12:28;;;;;;;7.67;6.57;;;;;;;;;;5007148;28;20562;-65
2021/10/18 09:15:00;;;;;;;14.03;7.90;;;;;;;;;;4983866;28;20177;-66
2021/10/18 09:17:45;;;;;;;11.57;8.37;;;;;;;;;;5021335;28;20192;-67
2021/10/18 09:20:25;;;;;;;11.17;8.30;;;;;;;;;;5007135;28;20229;-63
2021/10/18 09:22:51;;;;;;;12.30;8.03;;;;;;;;;;5011838;28;20185;-64
2021/10/18 09:25:38;;;;;;;11.20;8.03;;;;;;;;;;5017318;28;20174;-64
2021/10/18 09:28:08;;;;;;;8.97;8.00;;;;;;;;;;5025369;28;20181;-64
2021/10/18 09:30:39;;;;;;;10.47;8.10;;;;;;;;;;5026026;28;20735;-68
2021/10/18 09:33:13;;;;;;;11.37;8.50;;;;;;;;;;5026849;28;20197;-67
2021/10/18 09:35:40;;;;;;;11.33;9.07;;;;;;;;;;5022637;28;20181;-66
2021/10/18 09:38:11;;;;;;;10.20;8.43;;;;;;;;;;5008739;28;20641;-67
2021/10/18 09:40:40;;;;;;;13.10;8.03;;;;;;;;;;5008374;28;20222;-65
2021/10/18 09:43:11;;;;;;;12.03;8.63;;;;;;;;;;5007248;28;20193;-65
2021/10/18 09:45:38;;;;;;;11.17;7.73;;;;;;;;;;5025282;28;20247;-66
2021/10/18 10:53:48;;;;;;;8.43;7.23;;;;;;;;;;5028909;28;20254;-63
2021/10/18 10:56:26;;;;;;;12.30;8.50;;;;;;;;;;5023531;28;20213;-64
2021/10/18 10:59:19;;;;;;;7.40;6.10;;;;;;;;;;5032839;28;20256;-63
2021/10/18 11:01:51;;;;;;;10.80;7.17;;;;;;;;;;5012681;28;20669;-63
2021/10/18 11:04:33;;;;;;;7.50;6.00;;;;;;;;;;4988748;28;20296;-64
2021/10/18 11:07:10;;;;;;;10.67;7.10;;;;;;;;;;4998970;28;20178;-63
2021/10/18 11:09:38;;;;;;;9.33;7.10;;;;;;;;;;4991173;28;20186;-63
2021/10/18 11:12:05;;;;;;;6.83;6.13;;;;;;;;;;5008031;28;20205;-63
2021/10/18 11:14:42;;;;;;;7.10;6.40;;;;;;;;;;4988330;28;20208;-64
2021/10/18 11:17:12;;;;;;;7.57;6.73;;;;;;;;;;4990029;28;20599;-64
2021/10/18 11:19:38;;;;;;;9.37;6.47;;;;;;;;;;4991824;28;20198;-64
2021/10/18 11:22:24;;;;;;;7.57;6.53;;;;;;;;;;4990165;28;20186;-63
2021/10/18 11:24:53;;;;;;;8.13;5.70;;;;;;;;;;4993956;28;20174;-63
2021/10/18 11:27:45;;;;;;;7.30;6.30;;;;;;;;;;4987810;28;20193;-63
2021/10/18 11:30:13;;;;;;;11.57;6.70;;;;;;;;;;5004249;28;20209;-64
2021/10/18 11:32:43;;;;;;;9.13;6.40;;;;;;;;;;5008423;28;20317;-63
2021/10/18 11:35:14;;;;;;;7.53;6.20;;;;;;;;;;4991710;28;20181;-65
2021/10/18 11:37:53;;;;;;;8.43;6.13;;;;;;;;;;4990841;28;20654;-69
2021/10/18 11:40:47;;;;;;;7.70;5.67;;;;;;;;;;4989966;28;20309;-64
2021/10/18 11:43:19;;;;;;;8.83;5.50;;;;;;;;;;4996403;28;20189;-63
2021/10/18 11:45:58;;;;;;;6.97;5.90;;;;;;;;;;4991614;28;20676;-63
2021/10/18 11:48:25;;;;;;;8.47;6.00;;;;;;;;;;4991242;28;20186;-62
2021/10/18 11:50:58;;;;;;;6.93;5.33;;;;;;;;;;5008341;28;20649;-63
2021/10/18 11:53:53;;;;;;;8.40;5.80;;;;;;;;;;4991230;28;20215;-63
2021/10/18 11:56:28;;;;;;;10.03;6.43;;;;;;;;;;5008042;28;20201;-63
2021/10/18 11:58:54;;;;;;;6.90;5.40;;;;;;;;;;5007351;28;20163;-63
2021/10/18 12:01:27;;;;;;;7.20;6.47;;;;;;;;;;4991614;28;20182;-63
2021/10/18 12:03:59;;;;;;;8.23;6.30;;;;;;;;;;5010852;28;20229;-62
2021/10/18 12:06:28;;;;;;;9.27;6.27;;;;;;;;;;5010648;28;20188;-62
2021/10/18 12:09:04;;;;;;;8.50;5.80;;;;;;;;;;5010592;28;20209;-63
2021/10/18 12:11:36;;;;;;;8.00;6.73;;;;;;;;;;5014101;28;20271;-62
2021/10/18 12:14:08;;;;;;;7.23;6.53;;;;;;;;;;5009388;28;20185;-62
2021/10/18 12:16:37;;;;;;;8.60;5.63;;;;;;;;;;5010693;28;20530;-63
2021/10/18 12:19:07;;;;;;;5.80;5.20;;;;;;;;;;5010047;28;20190;-62
2021/10/18 12:21:50;;;;;;;7.40;5.73;;;;;;;;;;5010446;28;20633;-63
2021/10/18 12:24:17;;;;;;;7.07;5.33;;;;;;;;;;5027117;28;20299;-63
2021/10/18 12:26:48;;;;;;;6.17;5.57;;;;;;;;;;5028242;28;20181;-63
2021/10/18 12:29:18;;;;;;;8.10;6.20;;;;;;;;;;5027683;28;20196;-62
2021/10/18 12:32:05;;;;;;;7.90;5.57;;;;;;;;;;5027953;28;20193;-63
2021/10/18 12:34:37;;;;;;;5.53;5.03;;;;;;;;;;5008196;28;20200;-63
2021/10/18 12:37:23;;;;;;;7.30;5.97;;;;;;;;;;5010417;28;20559;-63
2021/10/18 12:39:52;;;;;;;6.07;5.40;;;;;;;;;;5009307;28;20181;-62
2021/10/18 12:42:21;;;;;;;9.73;5.53;;;;;;;;;;5007704;28;20181;-63
2021/10/18 12:44:51;;;;;;;5.43;4.90;;;;;;;;;;5009260;28;20281;-62
2021/10/18 12:47:24;;;;;;;6.23;4.77;;;;;;;;;;5042051;28;20796;-63
2021/10/18 12:50:03;;;;;;;6.80;4.87;;;;;;;;;;5027295;28;20652;-63
2021/10/18 12:52:30;;;;;;;7.50;5.37;;;;;;;;;;5007474;28;20205;-63
2021/10/18 12:55:00;;;;;;;6.17;5.10;;;;;;;;;;5009477;28;20186;-63
2021/10/18 12:57:28;;;;;;;6.37;5.43;;;;;;;;;;5009503;28;20215;-63
2021/10/18 13:00:27;;;;;;;6.10;5.33;;;;;;;;;;5008113;28;20632;-63
2021/10/18 13:02:57;;;;;;;6.33;5.37;;;;;;;;;;5008899;28;20225;-62
2021/10/18 13:05:31;;;;;;;6.90;5.53;;;;;;;;;;5009779;28;20190;-63
2021/10/18 13:08:00;;;;;;;5.97;4.87;;;;;;;;;;5009196;28;20186;-63
2021/10/18 13:10:29;;;;;;;5.40;4.90;;;;;;;;;;5027303;28;20189;-64
2021/10/18 13:13:06;;;;;;;5.07;4.57;;;;;;;;;;5004430;28;20202;-63
2021/10/18 13:15:49;;;;;;;9.80;6.03;;;;;;;;;;4993718;28;20272;-63
2021/10/18 13:18:21;;;;;;;5.77;5.13;;;;;;;;;;5010761;28;20521;-63
2021/10/18 13:20:47;;;;;;;5.67;4.87;;;;;;;;;;5009698;28;20186;-63
2021/10/18 13:23:21;;;;;;;5.13;4.67;;;;;;;;;;5005010;28;20189;-63
2021/10/18 13:25:58;;;;;;;6.97;5.10;;;;;;;;;;5001431;28;20192;-63
2021/10/18 13:28:25;;;;;;;5.60;4.90;;;;;;;;;;5012348;28;20521;-62
2021/10/18 13:30:57;;;;;;;5.43;4.80;;;;;;;;;;5014244;28;20182;-63
2021/10/18 13:33:35;;;;;;;6.00;4.83;;;;;;;;;;5001698;28;20213;-63
2021/10/18 13:36:03;;;;;;;6.17;5.20;;;;;;;;;;5015329;28;20189;-64
2021/10/18 13:38:29;;;;;;;8.67;5.83;;;;;;;;;;5017529;28;20207;-64
2021/10/18 13:40:56;;;;;;;6.57;5.20;;;;;;;;;;5004751;28;20470;-63
2021/10/18 13:43:22;;;;;;;6.10;5.27;;;;;;;;;;5022335;28;20208;-63
2021/10/18 13:45:48;;;;;;;6.30;5.07;;;;;;;;;;5029676;28;20184;-63
2021/10/18 13:48:21;;;;;;;6.10;5.50;;;;;;;;;;5014793;28;20185;-63
2021/10/18 13:50:51;;;;;;;6.97;4.90;;;;;;;;;;5016657;28;20185;-64
2021/10/18 13:53:19;;;;;;;5.73;4.60;;;;;;;;;;5007849;28;20287;-63
2021/10/18 13:55:47;;;;;;;6.10;4.87;;;;;;;;;;5016099;28;20180;-63
2021/10/18 13:58:14;;;;;;;6.47;5.13;;;;;;;;;;5017572;28;20513;-63
2021/10/18 14:00:40;;;;;;;6.00;5.23;;;;;;;;;;5018182;28;20203;-63
2021/10/18 14:03:11;;;;;;;8.00;6.33;;;;;;;;;;5019644;28;20225;-64
2021/10/18 14:05:44;;;;;;;5.53;5.00;;;;;;;;;;5033250;28;20311;-63
2021/10/18 14:08:11;;;;;;;5.50;4.87;;;;;;;;;;5013340;28;20193;-64
2021/10/18 14:10:39;;;;;;;6.40;4.93;;;;;;;;;;5014121;28;20226;-67
2021/10/18 14:13:35;;;;;;;9.17;5.47;;;;;;;;;;5017399;28;20220;-63
2021/10/18 14:16:02;;;;;;;5.70;5.10;;;;;;;;;;5016125;28;20595;-63
2021/10/18 14:18:33;;;;;;;5.37;4.87;;;;;;;;;;5017397;28;20177;-63
2021/10/18 14:21:00;;;;;;;5.10;4.60;;;;;;;;;;5017863;28;20658;-63
2021/10/18 14:23:35;;;;;;;5.10;4.60;;;;;;;;;;5016980;28;20677;-63
2021/10/18 14:26:04;;;;;;;6.90;5.27;;;;;;;;;;5018812;28;20188;-64
2021/10/18 14:28:37;;;;;;;6.50;5.77;;;;;;;;;;5017820;28;20207;-63
2021/10/18 14:31:03;;;;;;;5.47;4.93;;;;;;;;;;5013302;28;20200;-63
2021/10/18 14:33:30;;;;;;;5.57;5.00;;;;;;;;;;5016792;28;20201;-64
2021/10/18 14:36:02;;;;;;;5.87;5.00;;;;;;;;;;5016029;28;20232;-64
2021/10/18 14:38:28;;;;;;;5.50;5.00;;;;;;;;;;5034676;28;20170;-62
2021/10/18 14:40:58;;;;;;;7.03;5.10;;;;;;;;;;5018129;28;20234;-63
2021/10/18 14:43:25;;;;;;;6.10;5.20;;;;;;;;;;5019470;28;20185;-63
2021/10/18 14:45:51;;;;;;;5.40;4.90;;;;;;;;;;5015930;28;20196;-64
2021/10/18 14:48:28;;;;;;;6.33;5.30;;;;;;;;;;5013635;28;20186;-63
2021/10/18 14:50:54;;;;;;;6.80;5.40;;;;;;;;;;5013698;28;20185;-62
2021/10/18 14:53:30;;;;;;;6.53;5.83;;;;;;;;;;5017695;28;20215;-66
2021/10/18 14:55:59;;;;;;;8.97;6.63;;;;;;;;;;5016177;28;20588;-66
2021/10/18 14:58:29;;;;;;;7.47;5.90;;;;;;;;;;5014434;28;20923;-69
2021/10/18 15:00:55;;;;;;;7.73;6.00;;;;;;;;;;5017623;28;20178;-68
2021/10/18 15:03:22;;;;;;;9.33;5.73;;;;;;;;;;5017910;28;20266;-68
2021/10/18 15:05:48;;;;;;;7.97;6.33;;;;;;;;;;5035081;28;20190;-67
2021/10/18 15:08:14;;;;;;;8.73;6.77;;;;;;;;;;5018690;28;20208;-68
2021/10/18 15:10:41;;;;;;;8.80;6.93;;;;;;;;;;5020789;28;20652;-67
2021/10/18 15:13:10;;;;;;;7.20;6.50;;;;;;;;;;5014074;28;20656;-69
2021/10/18 15:15:36;;;;;;;6.73;6.00;;;;;;;;;;5015369;28;20190;-68
2021/10/18 15:18:02;;;;;;;8.47;7.03;;;;;;;;;;5017659;28;20178;-67
2021/10/18 15:20:29;;;;;;;8.40;6.63;;;;;;;;;;5016862;28;20178;-65
2021/10/18 15:22:59;;;;;;;7.87;7.10;;;;;;;;;;5017349;28;20188;-64
2021/10/18 15:25:27;;;;;;;7.57;6.43;;;;;;;;;;5031354;28;20487;-66
2021/10/18 15:27:57;;;;;;;8.97;7.13;;;;;;;;;;5028044;28;20217;-67
2021/10/18 15:30:36;;;;;;;10.23;7.73;;;;;;;;;;5014857;28;20177;-67
2021/10/18 15:33:02;;;;;;;9.30;6.93;;;;;;;;;;5013661;28;20220;-62
2021/10/18 15:35:28;;;;;;;8.43;6.97;;;;;;;;;;5030374;28;20628;-63
2021/10/18 15:37:55;;;;;;;9.47;6.87;;;;;;;;;;5015792;28;20637;-65
2021/10/18 15:40:26;;;;;;;7.97;7.17;;;;;;;;;;5009434;28;20305;-68
2021/10/18 15:42:53;;;;;;;11.70;6.63;;;;;;;;;;5009425;28;20193;-64
2021/10/18 15:45:26;;;;;;;9.30;6.97;;;;;;;;;;5022202;28;20200;-66
2021/10/18 15:47:57;;;;;;;9.33;7.50;;;;;;;;;;5012186;28;20320;-64
2021/10/18 15:50:31;;;;;;;16.00;7.07;;;;;;;;;;5017004;28;20247;-64
2021/10/18 15:52:57;;;;;;;13.27;7.70;;;;;;;;;;5029833;28;20248;-64
2021/10/18 15:55:42;;;;;;;13.30;7.10;;;;;;;;;;5038546;28;20173;-63
2021/10/18 15:58:08;;;;;;;12.20;7.47;;;;;;;;;;5014204;28;20193;-64
2021/10/18 16:00:34;;;;;;;9.40;7.23;;;;;;;;;;5022551;28;20170;-64
2021/10/18 16:03:20;;;;;;;10.97;7.53;;;;;;;;;;5018194;28;20224;-63
2021/10/18 16:05:53;;;;;;;8.47;7.57;;;;;;;;;;5034200;28;20732;-64
2021/10/18 16:08:58;;;;;;;;;;;;;;;;;;;;;
2021/10/18 16:11:19;;;;;;;9.20;7.43;;;;;;;;;;5031275;28;20518;-64
2021/10/18 16:13:45;;;;;;;10.93;7.57;;;;;;;;;;5030152;28;20186;-63
2021/10/18 16:16:21;;;;;;;10.67;7.87;;;;;;;;;;5038321;28;20177;-63
2021/10/18 16:18:53;;;;;;;9.90;7.23;;;;;;;;;;5032187;28;20173;-64
2021/10/18 16:21:25;;;;;;;8.10;7.30;;;;;;;;;;5033085;28;20174;-64
2021/10/18 16:24:20;;;;;;;;;;;;;;;;;;;;;
2021/10/18 16:26:59;;;;;;;9.63;7.03;;;;;;;;;;5035430;28;20190;-64
2021/10/18 16:29:55;;;;;;;;;;;;;;;;;;;;;
2021/10/18 16:32:23;;;;;;;9.43;7.50;;;;;;;;;;5033807;28;20207;-64
2021/10/18 16:34:49;;;;;;;8.60;7.63;;;;;;;;;;5015722;28;20182;-64
2021/10/18 16:37:15;;;;;;;7.73;6.97;;;;;;;;;;5014708;28;20180;-63
2021/10/18 16:39:41;;;;;;;10.70;9.00;;;;;;;;;;5018493;28;20782;-65
2021/10/18 16:42:07;;;;;;;8.60;7.43;;;;;;;;;;5019096;28;20648;-65